sensor_id;sensor_type;location;lat;lon;timestamp;temperature;humidity
31809;DHT22;18379;48.208;-1.518;2023-02-10T00:05:34;8.20;99.90
31809;DHT22;18379;48.208;-1.518;2023-02-10T00:10:35;8.20;99.90
31809;DHT22;18379;48.208;-1.518;2023-02-10T00:15:37;8.20;99.90
31809;DHT22;18379;48.208;-1.518;2023-02-10T00:20:38;8.20;99.90
31809;DHT22;18379;48.208;-1.518;2023-02-10T00:25:39;8.30;99.90
31809;DHT22;18379;48.208;-1.518;2023-02-10T00:30:39;8.30;99.90
31809;DHT22;18379;48.208;-1.518;2023-02-10T00:35:40;8.30;99.90
31809;DHT22;18379;48.208;-1.518;2023-02-10T00:40:41;8.30;99.90
31809;DHT22;18379;48.208;-1.518;2023-02-10T00:45:42;8.20;99.90
31809;DHT22;18379;48.208;-1.518;2023-02-10T00:50:43;8.10;99.90
31809;DHT22;18379;48.208;-1.518;2023-02-10T00:55:44;8.10;99.90
31809;DHT22;18379;48.208;-1.518;2023-02-10T01:00:45;8.10;99.90
31809;DHT22;18379;48.208;-1.518;2023-02-10T01:05:46;8.00;99.90
31809;DHT22;18379;48.208;-1.518;2023-02-10T01:10:47;8.00;99.90
31809;DHT22;18379;48.208;-1.518;2023-02-10T01:15:47;8.00;99.90
31809;DHT22;18379;48.208;-1.518;2023-02-10T01:20:48;7.90;99.90
31809;DHT22;18379;48.208;-1.518;2023-02-10T01:25:49;7.90;99.90
31809;DHT22;18379;48.208;-1.518;2023-02-10T01:30:50;7.90;99.90
31809;DHT22;18379;48.208;-1.518;2023-02-10T01:35:51;8.00;99.90
31809;DHT22;18379;48.208;-1.518;2023-02-10T01:40:51;8.00;99.90
31809;DHT22;18379;48.208;-1.518;2023-02-10T01:45:52;8.00;99.90
31809;DHT22;18379;48.208;-1.518;2023-02-10T01:50:58;8.00;99.90
31809;DHT22;18379;48.208;-1.518;2023-02-10T01:56:03;8.00;99.90
31809;DHT22;18379;48.208;-1.518;2023-02-10T02:01:04;7.90;99.90
31809;DHT22;18379;48.208;-1.518;2023-02-10T02:06:05;7.90;99.90
31809;DHT22;18379;48.208;-1.518;2023-02-10T02:11:19;7.80;99.90
31809;DHT22;18379;48.208;-1.518;2023-02-10T02:32:22;8.00;99.90
31809;DHT22;18379;48.208;-1.518;2023-02-10T02:37:27;8.00;99.90
31809;DHT22;18379;48.208;-1.518;2023-02-10T02:42:30;8.10;99.90
31809;DHT22;18379;48.208;-1.518;2023-02-10T03:03:54;8.10;99.90
31809;DHT22;18379;48.208;-1.518;2023-02-10T03:08:57;8.10;99.90
31809;DHT22;18379;48.208;-1.518;2023-02-10T03:13:58;8.10;99.90
31809;DHT22;18379;48.208;-1.518;2023-02-10T03:19:00;8.00;99.90
31809;DHT22;18379;48.208;-1.518;2023-02-10T03:24:01;8.00;99.90
31809;DHT22;18379;48.208;-1.518;2023-02-10T03:29:03;8.00;99.90
31809;DHT22;18379;48.208;-1.518;2023-02-10T03:34:04;8.00;99.90
31809;DHT22;18379;48.208;-1.518;2023-02-10T03:39:05;8.00;99.90
31809;DHT22;18379;48.208;-1.518;2023-02-10T03:44:06;8.00;99.90
31809;DHT22;18379;48.208;-1.518;2023-02-10T03:49:06;7.90;99.90
31809;DHT22;18379;48.208;-1.518;2023-02-10T03:54:07;7.90;99.90
31809;DHT22;18379;48.208;-1.518;2023-02-10T03:59:09;7.90;99.90
31809;DHT22;18379;48.208;-1.518;2023-02-10T04:04:09;7.80;99.90
31809;DHT22;18379;48.208;-1.518;2023-02-10T04:09:10;7.80;99.90
31809;DHT22;18379;48.208;-1.518;2023-02-10T04:14:11;7.80;99.90
31809;DHT22;18379;48.208;-1.518;2023-02-10T04:19:12;7.80;99.90
31809;DHT22;18379;48.208;-1.518;2023-02-10T04:24:13;7.80;99.90
31809;DHT22;18379;48.208;-1.518;2023-02-10T04:29:13;7.70;99.90
31809;DHT22;18379;48.208;-1.518;2023-02-10T04:34:14;7.70;99.90
31809;DHT22;18379;48.208;-1.518;2023-02-10T04:39:15;7.70;99.90
31809;DHT22;18379;48.208;-1.518;2023-02-10T04:44:16;7.60;99.90
31809;DHT22;18379;48.208;-1.518;2023-02-10T04:49:17;7.60;99.90
31809;DHT22;18379;48.208;-1.518;2023-02-10T04:54:18;7.60;99.90
31809;DHT22;18379;48.208;-1.518;2023-02-10T04:59:19;7.50;99.90
31809;DHT22;18379;48.208;-1.518;2023-02-10T05:04:20;7.50;99.90
31809;DHT22;18379;48.208;-1.518;2023-02-10T05:09:22;7.50;99.90
31809;DHT22;18379;48.208;-1.518;2023-02-10T05:14:23;7.50;99.90
31809;DHT22;18379;48.208;-1.518;2023-02-10T05:19:23;7.50;99.90
31809;DHT22;18379;48.208;-1.518;2023-02-10T05:24:24;7.50;99.90
31809;DHT22;18379;48.208;-1.518;2023-02-10T05:29:25;7.50;99.90
31809;DHT22;18379;48.208;-1.518;2023-02-10T05:34:26;7.50;99.90
31809;DHT22;18379;48.208;-1.518;2023-02-10T05:39:27;7.50;99.90
31809;DHT22;18379;48.208;-1.518;2023-02-10T05:44:29;7.40;99.90
31809;DHT22;18379;48.208;-1.518;2023-02-10T05:49:30;7.50;99.90
31809;DHT22;18379;48.208;-1.518;2023-02-10T05:54:31;7.50;99.90
31809;DHT22;18379;48.208;-1.518;2023-02-10T05:59:31;7.50;99.90
31809;DHT22;18379;48.208;-1.518;2023-02-10T06:04:32;7.50;99.90
31809;DHT22;18379;48.208;-1.518;2023-02-10T06:09:33;7.50;99.90
31809;DHT22;18379;48.208;-1.518;2023-02-10T06:14:34;7.40;99.90
31809;DHT22;18379;48.208;-1.518;2023-02-10T06:19:38;7.40;99.90
31809;DHT22;18379;48.208;-1.518;2023-02-10T06:24:39;7.50;99.90
31809;DHT22;18379;48.208;-1.518;2023-02-10T06:29:40;7.50;99.90
31809;DHT22;18379;48.208;-1.518;2023-02-10T06:34:40;7.40;99.90
31809;DHT22;18379;48.208;-1.518;2023-02-10T06:39:41;7.40;99.90
31809;DHT22;18379;48.208;-1.518;2023-02-10T06:44:46;7.40;99.90
31809;DHT22;18379;48.208;-1.518;2023-02-10T06:49:47;7.40;99.90
31809;DHT22;18379;48.208;-1.518;2023-02-10T06:54:48;7.40;99.90
31809;DHT22;18379;48.208;-1.518;2023-02-10T06:59:52;7.40;99.90
31809;DHT22;18379;48.208;-1.518;2023-02-10T07:04:54;7.40;99.90
31809;DHT22;18379;48.208;-1.518;2023-02-10T07:09:56;7.40;99.90
31809;DHT22;18379;48.208;-1.518;2023-02-10T07:15:10;7.40;99.90
31809;DHT22;18379;48.208;-1.518;2023-02-10T07:20:12;7.50;99.90
31809;DHT22;18379;48.208;-1.518;2023-02-10T07:25:16;7.50;99.90
31809;DHT22;18379;48.208;-1.518;2023-02-10T07:30:18;7.40;99.90
31809;DHT22;18379;48.208;-1.518;2023-02-10T07:35:20;7.40;99.90
31809;DHT22;18379;48.208;-1.518;2023-02-10T07:40:26;7.50;99.90
31809;DHT22;18379;48.208;-1.518;2023-02-10T07:45:29;7.50;99.90
31809;DHT22;18379;48.208;-1.518;2023-02-10T07:50:31;7.50;99.90
31809;DHT22;18379;48.208;-1.518;2023-02-10T07:55:32;7.40;99.90
31809;DHT22;18379;48.208;-1.518;2023-02-10T08:00:33;7.50;99.90
31809;DHT22;18379;48.208;-1.518;2023-02-10T08:05:35;7.50;99.90
31809;DHT22;18379;48.208;-1.518;2023-02-10T08:10:37;7.40;99.90
31809;DHT22;18379;48.208;-1.518;2023-02-10T08:15:38;7.50;99.90
31809;DHT22;18379;48.208;-1.518;2023-02-10T08:20:39;7.50;99.90
31809;DHT22;18379;48.208;-1.518;2023-02-10T08:25:43;7.70;99.90
31809;DHT22;18379;48.208;-1.518;2023-02-10T08:30:44;7.80;99.90
31809;DHT22;18379;48.208;-1.518;2023-02-10T08:35:45;7.80;99.90
31809;DHT22;18379;48.208;-1.518;2023-02-10T08:40:54;7.80;99.90
31809;DHT22;18379;48.208;-1.518;2023-02-10T08:45:55;7.80;99.90
31809;DHT22;18379;48.208;-1.518;2023-02-10T08:50:57;8.00;99.90
31809;DHT22;18379;48.208;-1.518;2023-02-10T08:55:59;8.00;99.90
31809;DHT22;18379;48.208;-1.518;2023-02-10T09:01:00;8.10;99.90
31809;DHT22;18379;48.208;-1.518;2023-02-10T09:06:01;8.20;99.90
31809;DHT22;18379;48.208;-1.518;2023-02-10T09:11:05;8.40;99.90
31809;DHT22;18379;48.208;-1.518;2023-02-10T09:16:06;8.60;99.90
31809;DHT22;18379;48.208;-1.518;2023-02-10T09:21:08;8.80;99.90
31809;DHT22;18379;48.208;-1.518;2023-02-10T09:26:10;8.90;99.90
31809;DHT22;18379;48.208;-1.518;2023-02-10T09:31:12;9.00;99.90
31809;DHT22;18379;48.208;-1.518;2023-02-10T09:36:19;9.20;99.90
31809;DHT22;18379;48.208;-1.518;2023-02-10T09:52:07;9.70;99.90
31809;DHT22;18379;48.208;-1.518;2023-02-10T09:57:17;9.80;99.90
31809;DHT22;18379;48.208;-1.518;2023-02-10T10:02:31;10.00;99.90
31809;DHT22;18379;48.208;-1.518;2023-02-10T10:07:35;10.10;99.90
31809;DHT22;18379;48.208;-1.518;2023-02-10T10:12:37;10.30;99.90
31809;DHT22;18379;48.208;-1.518;2023-02-10T10:28:38;10.80;99.90
31809;DHT22;18379;48.208;-1.518;2023-02-10T10:33:52;10.90;99.90
31809;DHT22;18379;48.208;-1.518;2023-02-10T10:38:55;11.00;99.90
31809;DHT22;18379;48.208;-1.518;2023-02-10T10:43:59;11.20;99.90
31809;DHT22;18379;48.208;-1.518;2023-02-10T10:49:00;11.30;99.90
31809;DHT22;18379;48.208;-1.518;2023-02-10T10:54:01;11.40;99.90
31809;DHT22;18379;48.208;-1.518;2023-02-10T10:59:14;11.50;99.90
31809;DHT22;18379;48.208;-1.518;2023-02-10T11:04:26;11.80;99.90
31809;DHT22;18379;48.208;-1.518;2023-02-10T11:09:34;12.00;99.90
31809;DHT22;18379;48.208;-1.518;2023-02-10T11:14:41;12.00;99.90
31809;DHT22;18379;48.208;-1.518;2023-02-10T11:20:03;12.00;99.90
31809;DHT22;18379;48.208;-1.518;2023-02-10T11:30:35;11.90;99.90
31809;DHT22;18379;48.208;-1.518;2023-02-10T11:35:36;12.20;99.90
31809;DHT22;18379;48.208;-1.518;2023-02-10T11:41:07;12.40;99.90
31809;DHT22;18379;48.208;-1.518;2023-02-10T11:46:23;12.70;99.90
31809;DHT22;18379;48.208;-1.518;2023-02-10T11:51:24;12.60;99.90
31809;DHT22;18379;48.208;-1.518;2023-02-10T12:08:27;13.00;99.90
31809;DHT22;18379;48.208;-1.518;2023-02-10T12:19:03;13.10;99.90
31809;DHT22;18379;48.208;-1.518;2023-02-10T12:24:29;13.00;99.90
31809;DHT22;18379;48.208;-1.518;2023-02-10T12:35:09;13.10;99.90
31809;DHT22;18379;48.208;-1.518;2023-02-10T12:51:18;13.60;99.90
31809;DHT22;18379;48.208;-1.518;2023-02-10T12:56:37;13.30;99.90
31809;DHT22;18379;48.208;-1.518;2023-02-10T13:01:51;12.80;99.90
31809;DHT22;18379;48.208;-1.518;2023-02-10T13:12:25;12.50;99.90
31809;DHT22;18379;48.208;-1.518;2023-02-10T13:17:36;12.40;99.90
31809;DHT22;18379;48.208;-1.518;2023-02-10T13:39:16;13.00;99.90
31809;DHT22;18379;48.208;-1.518;2023-02-10T13:44:27;12.40;99.90
31809;DHT22;18379;48.208;-1.518;2023-02-10T13:49:29;12.20;99.90
31809;DHT22;18379;48.208;-1.518;2023-02-10T13:54:32;12.30;99.90
31809;DHT22;18379;48.208;-1.518;2023-02-10T13:59:41;12.40;99.90
31809;DHT22;18379;48.208;-1.518;2023-02-10T14:04:47;12.10;99.90
31809;DHT22;18379;48.208;-1.518;2023-02-10T14:09:48;12.20;99.90
31809;DHT22;18379;48.208;-1.518;2023-02-10T14:14:48;12.40;99.90
31809;DHT22;18379;48.208;-1.518;2023-02-10T14:19:51;12.40;99.90
31809;DHT22;18379;48.208;-1.518;2023-02-10T14:24:53;12.50;99.90
31809;DHT22;18379;48.208;-1.518;2023-02-10T14:30:03;12.50;99.90
31809;DHT22;18379;48.208;-1.518;2023-02-10T14:35:16;12.40;99.90
31809;DHT22;18379;48.208;-1.518;2023-02-10T14:40:19;12.40;99.90
31809;DHT22;18379;48.208;-1.518;2023-02-10T14:45:25;12.30;99.90
31809;DHT22;18379;48.208;-1.518;2023-02-10T14:50:32;12.20;99.90
31809;DHT22;18379;48.208;-1.518;2023-02-10T14:55:35;12.30;99.90
31809;DHT22;18379;48.208;-1.518;2023-02-10T15:00:40;12.30;99.90
31809;DHT22;18379;48.208;-1.518;2023-02-10T15:05:50;12.10;99.90
31809;DHT22;18379;48.208;-1.518;2023-02-10T15:10:53;12.20;99.90
31809;DHT22;18379;48.208;-1.518;2023-02-10T15:15:55;12.30;99.90
31809;DHT22;18379;48.208;-1.518;2023-02-10T15:20:59;12.40;99.90
31809;DHT22;18379;48.208;-1.518;2023-02-10T15:26:06;12.40;99.90
31809;DHT22;18379;48.208;-1.518;2023-02-10T15:31:25;12.40;99.90
31809;DHT22;18379;48.208;-1.518;2023-02-10T15:36:28;12.50;99.90
31809;DHT22;18379;48.208;-1.518;2023-02-10T15:46:38;12.70;99.90
31809;DHT22;18379;48.208;-1.518;2023-02-10T15:51:45;12.70;99.90
31809;DHT22;18379;48.208;-1.518;2023-02-10T15:56:56;12.50;99.90
31809;DHT22;18379;48.208;-1.518;2023-02-10T16:02:00;12.50;99.90
31809;DHT22;18379;48.208;-1.518;2023-02-10T16:07:02;12.60;99.90
31809;DHT22;18379;48.208;-1.518;2023-02-10T16:12:04;12.40;99.90
31809;DHT22;18379;48.208;-1.518;2023-02-10T16:17:05;12.30;99.90
31809;DHT22;18379;48.208;-1.518;2023-02-10T16:22:09;12.20;99.90
31809;DHT22;18379;48.208;-1.518;2023-02-10T16:27:13;12.20;99.90
31809;DHT22;18379;48.208;-1.518;2023-02-10T16:32:14;12.20;99.90
31809;DHT22;18379;48.208;-1.518;2023-02-10T16:37:18;12.00;99.90
31809;DHT22;18379;48.208;-1.518;2023-02-10T16:42:20;11.90;99.90
31809;DHT22;18379;48.208;-1.518;2023-02-10T16:47:21;11.90;99.90
31809;DHT22;18379;48.208;-1.518;2023-02-10T16:52:21;11.90;99.90
31809;DHT22;18379;48.208;-1.518;2023-02-10T16:57:23;11.90;99.90
31809;DHT22;18379;48.208;-1.518;2023-02-10T17:02:24;11.80;99.90
31809;DHT22;18379;48.208;-1.518;2023-02-10T17:07:25;11.70;99.90
31809;DHT22;18379;48.208;-1.518;2023-02-10T17:12:25;11.60;99.90
31809;DHT22;18379;48.208;-1.518;2023-02-10T17:17:26;11.60;99.90
31809;DHT22;18379;48.208;-1.518;2023-02-10T17:22:27;11.50;99.90
31809;DHT22;18379;48.208;-1.518;2023-02-10T17:27:28;11.50;99.90
31809;DHT22;18379;48.208;-1.518;2023-02-10T17:32:29;11.30;99.90
31809;DHT22;18379;48.208;-1.518;2023-02-10T17:37:32;11.10;99.90
31809;DHT22;18379;48.208;-1.518;2023-02-10T17:42:33;11.00;99.90
31809;DHT22;18379;48.208;-1.518;2023-02-10T17:47:33;10.80;99.90
31809;DHT22;18379;48.208;-1.518;2023-02-10T17:52:34;10.50;99.90
31809;DHT22;18379;48.208;-1.518;2023-02-10T17:57:35;10.30;99.90
31809;DHT22;18379;48.208;-1.518;2023-02-10T18:02:36;10.10;99.90
31809;DHT22;18379;48.208;-1.518;2023-02-10T18:07:37;10.10;99.90
31809;DHT22;18379;48.208;-1.518;2023-02-10T18:12:38;10.00;99.90
31809;DHT22;18379;48.208;-1.518;2023-02-10T18:17:38;9.90;99.90
31809;DHT22;18379;48.208;-1.518;2023-02-10T18:22:42;9.90;99.90
31809;DHT22;18379;48.208;-1.518;2023-02-10T18:27:43;10.00;99.90
31809;DHT22;18379;48.208;-1.518;2023-02-10T18:32:44;10.00;99.90
31809;DHT22;18379;48.208;-1.518;2023-02-10T18:37:45;9.90;99.90
31809;DHT22;18379;48.208;-1.518;2023-02-10T18:42:46;9.90;99.90
31809;DHT22;18379;48.208;-1.518;2023-02-10T18:47:47;9.70;99.90
31809;DHT22;18379;48.208;-1.518;2023-02-10T18:52:49;9.60;99.90
31809;DHT22;18379;48.208;-1.518;2023-02-10T18:57:49;9.60;99.90
31809;DHT22;18379;48.208;-1.518;2023-02-10T19:02:50;9.50;99.90
31809;DHT22;18379;48.208;-1.518;2023-02-10T19:07:51;9.50;99.90
31809;DHT22;18379;48.208;-1.518;2023-02-10T19:12:54;9.50;99.90
31809;DHT22;18379;48.208;-1.518;2023-02-10T19:17:56;9.40;99.90
31809;DHT22;18379;48.208;-1.518;2023-02-10T19:22:57;9.40;99.90
31809;DHT22;18379;48.208;-1.518;2023-02-10T19:27:58;9.50;99.90
31809;DHT22;18379;48.208;-1.518;2023-02-10T19:33:00;9.50;99.90
31809;DHT22;18379;48.208;-1.518;2023-02-10T19:38:01;9.40;99.90
31809;DHT22;18379;48.208;-1.518;2023-02-10T19:43:01;9.40;99.90
31809;DHT22;18379;48.208;-1.518;2023-02-10T19:48:02;9.40;99.90
31809;DHT22;18379;48.208;-1.518;2023-02-10T19:53:04;9.30;99.90
31809;DHT22;18379;48.208;-1.518;2023-02-10T19:58:06;9.30;99.90
31809;DHT22;18379;48.208;-1.518;2023-02-10T20:03:08;9.20;99.90
31809;DHT22;18379;48.208;-1.518;2023-02-10T20:08:13;9.30;99.90
31809;DHT22;18379;48.208;-1.518;2023-02-10T20:13:15;9.40;99.90
31809;DHT22;18379;48.208;-1.518;2023-02-10T20:18:17;9.30;99.90
31809;DHT22;18379;48.208;-1.518;2023-02-10T20:23:19;9.20;99.90
31809;DHT22;18379;48.208;-1.518;2023-02-10T20:28:22;9.10;99.90
31809;DHT22;18379;48.208;-1.518;2023-02-10T20:33:24;9.00;99.90
31809;DHT22;18379;48.208;-1.518;2023-02-10T20:38:28;8.80;99.90
31809;DHT22;18379;48.208;-1.518;2023-02-10T20:43:30;8.60;99.90
31809;DHT22;18379;48.208;-1.518;2023-02-10T20:48:30;8.50;99.90
31809;DHT22;18379;48.208;-1.518;2023-02-10T20:53:32;8.30;99.90
31809;DHT22;18379;48.208;-1.518;2023-02-10T20:58:33;8.10;99.90
31809;DHT22;18379;48.208;-1.518;2023-02-10T21:03:35;8.00;99.90
31809;DHT22;18379;48.208;-1.518;2023-02-10T21:08:37;7.80;99.90
31809;DHT22;18379;48.208;-1.518;2023-02-10T21:13:38;7.60;99.90
31809;DHT22;18379;48.208;-1.518;2023-02-10T21:18:40;7.50;99.90
31809;DHT22;18379;48.208;-1.518;2023-02-10T21:23:41;7.40;99.90
31809;DHT22;18379;48.208;-1.518;2023-02-10T21:28:45;7.30;99.90
31809;DHT22;18379;48.208;-1.518;2023-02-10T21:33:46;7.20;99.90
31809;DHT22;18379;48.208;-1.518;2023-02-10T21:38:47;7.20;99.90
31809;DHT22;18379;48.208;-1.518;2023-02-10T21:43:48;7.10;99.90
31809;DHT22;18379;48.208;-1.518;2023-02-10T21:48:48;6.90;99.90
31809;DHT22;18379;48.208;-1.518;2023-02-10T21:53:49;6.70;99.90
31809;DHT22;18379;48.208;-1.518;2023-02-10T21:58:50;6.50;99.90
31809;DHT22;18379;48.208;-1.518;2023-02-10T22:03:51;6.40;99.90
31809;DHT22;18379;48.208;-1.518;2023-02-10T22:08:52;6.40;99.90
31809;DHT22;18379;48.208;-1.518;2023-02-10T22:13:53;6.30;99.90
31809;DHT22;18379;48.208;-1.518;2023-02-10T22:18:54;6.20;99.90
31809;DHT22;18379;48.208;-1.518;2023-02-10T22:23:55;6.10;99.90
31809;DHT22;18379;48.208;-1.518;2023-02-10T22:28:58;6.10;99.90
31809;DHT22;18379;48.208;-1.518;2023-02-10T22:34:02;6.00;99.90
31809;DHT22;18379;48.208;-1.518;2023-02-10T22:39:03;6.00;99.90
31809;DHT22;18379;48.208;-1.518;2023-02-10T22:44:05;6.00;99.90
31809;DHT22;18379;48.208;-1.518;2023-02-10T22:49:07;6.10;99.90
31809;DHT22;18379;48.208;-1.518;2023-02-10T22:54:12;6.20;99.90
31809;DHT22;18379;48.208;-1.518;2023-02-10T22:59:13;6.40;99.90
31809;DHT22;18379;48.208;-1.518;2023-02-10T23:04:17;6.60;99.90
31809;DHT22;18379;48.208;-1.518;2023-02-10T23:09:19;6.70;99.90
31809;DHT22;18379;48.208;-1.518;2023-02-10T23:14:20;6.80;99.90
31809;DHT22;18379;48.208;-1.518;2023-02-10T23:19:23;7.00;99.90
31809;DHT22;18379;48.208;-1.518;2023-02-10T23:24:24;7.10;99.90
31809;DHT22;18379;48.208;-1.518;2023-02-10T23:29:25;7.20;99.90
31809;DHT22;18379;48.208;-1.518;2023-02-10T23:34:26;7.20;99.90
31809;DHT22;18379;48.208;-1.518;2023-02-10T23:39:26;7.30;99.90
31809;DHT22;18379;48.208;-1.518;2023-02-10T23:44:29;7.40;99.90
31809;DHT22;18379;48.208;-1.518;2023-02-10T23:49:30;7.30;99.90
31809;DHT22;18379;48.208;-1.518;2023-02-10T23:54:31;7.10;99.90
31809;DHT22;18379;48.208;-1.518;2023-02-10T23:59:32;6.80;99.90
